Weather at Chojnice

Public forecast

Using degrees Celsius for public forecast. Weather courtesy of forecast.io.

Closest aviation weather report (METAR) to Chojnice

Closest report is Bydgoszcz Ignacy Jan Paderewski Airport, 38.5 nm (71.3 km) SSE.

2023/09/29 07:00 (retrieved 23 minutes ago)

EPBY 290700Z 19003KT 140V240 CAVOK 17/11 Q1019

Closest aviation forecast (TAF) to Chojnice

Closest forecast is Bydgoszcz Ignacy Jan Paderewski Airport, 38.5 nm (71.3 km) SSE.

2023/09/29 06:00 (retrieved 1 hour ago)

TAF EPBY 290530Z 2906/3006 14005KT CAVOK TEMPO 2921/3006 4000 -RA BR BKN014 BECMG 3003/3006 30012KT